• Join FlightAware (Why Join?)
  • Login
  • US Flag 
02:29AM EDT


 

Airport Tracker/Info


-or-


 

Live Flight TrackerFlight Track Log ✈ EJA951 ✈ 03-Nov-2013 ✈ KAUS - KSUA

Flight Track Log - Related Links

Times and Time Zones

All times are in EST time to prevent confusion due to time zone crossing. See the EJA951 flight status page for this flight to view local times or setup timezone preferences in your user account.

Time Position Orientation Groundspeed Altitude Reporting Facility
EST Latitude Longitude Course Direction KTS MPH feet Rate Location/Type
08:36AM 30.2675 -97.5892 120° Southeast 234 269 6,300  Level Houston Center
08:37AM 30.2794 -97.5089 80° East 247 284 8,800 2,160 Climbing Houston Center
08:38AM 30.2958 -97.4136 79° East 286 329 10,700 1,560 Climbing Houston Center
08:39AM 30.3144 -97.3017 79° East 341 392 12,000 1,440 Climbing Houston Center
08:40AM 30.3350 -97.1819 79° East 369 425 13,700 1,560 Climbing Houston Center
08:41AM 30.0970 -96.7600 120° Southeast  Level Estimated
08:41AM 30.3525 -97.0611 80° East 378 435 15,300  Level Houston Center
08:42AM 30.3439 -96.9369 95° East 385 443 16,700 1,260 Climbing Houston Center
08:43AM 30.3358 -96.8094 94° East 392 451 17,900 1,260 Climbing Houston Center
08:44AM 30.3278 -96.6792 94° East 399 459 19,300 1,260 Climbing Houston Center
08:45AM 30.3200 -96.5447 94° East 412 474 20,500 1,140 Climbing Houston Center
08:46AM 30.3106 -96.4064 94° East 426 490 21,700 1,080 Climbing Houston Center
08:47AM 30.3019 -96.2625 94° East 440 506 22,800 1,380 Climbing Houston Center
08:48AM 30.2903 -96.0911 94° East 452 520 24,600 1,320 Climbing Houston Center
08:49AM 30.2417 -95.9542 112° Southeast 466 536 25,600 960 Climbing Houston Center
08:50AM 30.1786 -95.8197 118° Southeast 474 545 26,600 960 Climbing Houston Center
08:51AM 30.1122 -95.6789 119° Southeast 493 567 27,600 780 Climbing Houston Center
08:52AM 30.0461 -95.5364 118° Southeast 499 574 28,300 840 Climbing Houston Center
08:53AM 29.9792 -95.3894 118° Southeast 510 587 29,400 1,020 Climbing Houston Center
08:54AM 29.9683 -95.2231 94° East 519 597 30,400 960 Climbing Houston Center
08:55AM 29.9839 -95.0558 84° East 519 597 31,400 840 Climbing Houston Center
08:56AM 29.9981 -94.8939 84° East 521 600 32,200 960 Climbing Houston Center
08:58AM 30.0136 -94.7183 84° East 526 605 33,400 1,020 Climbing Houston Center
08:59AM 30.0283 -94.5478 84° East 530 610 34,400 1,020 Climbing Houston Center
09:00AM 30.0450 -94.3561 84° East 527 606 35,500 1,020 Climbing Houston Center
09:01AM 30.0592 -94.1861 84° East 531 611 36,500 960 Climbing Houston Center
09:02AM 30.0725 -94.0133 85° East 539 620 37,500 960 Climbing Houston Center
09:03AM 30.0858 -93.8400 85° East 544 626 38,500 960 Climbing Houston Center
09:04AM 30.0975 -93.6672 85° East 545 627 39,500 900 Climbing Houston Center
09:05AM 30.1103 -93.4964 85° East 545 627 40,400 720 Climbing Houston Center
09:06AM 30.1233 -93.3250 85° East 547 629 41,000 240 Climbing Houston Center
09:07AM 30.1406 -93.1144 85° East 554 638 41,000  Level Houston Center
09:08AM 30.1717 -92.9422 78° East 552 635 41,000  Level Houston Center
09:09AM 30.2069 -92.7697 77° East 553 636 41,000  Level Houston Center
09:10AM 30.2400 -92.5967 77° East 554 638 41,000  Level Houston Center
09:11AM 30.2736 -92.4231 77° East 556 640 41,000  Level Houston Center
09:12AM 30.3072 -92.2494 77° East 556 640 41,000  Level Houston Center
09:13AM 30.3392 -92.0778 78° East 551 634 41,000  Level Houston Center
09:14AM 30.3714 -91.9056 78° East 551 634 41,000  Level Houston Center
09:15AM 30.4047 -91.7325 77° East 552 635 41,000  Level Houston Center
09:16AM 30.4383 -91.5503 78° East 549 632 41,000  Level Houston Center
09:17AM 30.4697 -91.3786 78° East 546 628 41,000  Level Houston Center
09:18AM 30.4958 -91.2056 80° East 547 629 41,000  Level Houston Center
09:19AM 30.5100 -91.0289 85° East 550 633 41,000  Level Houston Center
09:20AM 30.5294 -90.8194 84° East 546 628 41,000  Level Houston Center
09:21AM 30.5444 -90.6433 84° East 548 631 41,000  Level Houston Center
09:22AM 30.5603 -90.4692 84° East 545 627 41,000  Level Houston Center
09:23AM 30.5761 -90.2936 84° East 545 627 41,000  Level Houston Center
09:24AM 30.5906 -90.1178 85° East 544 626 41,000  Level Houston Center
09:25AM 30.6061 -89.9411 84° East 546 628 41,000  Level Houston Center
09:26AM 30.6217 -89.7625 84° East 547 629 41,000  Level Houston Center
09:27AM 30.6356 -89.5856 85° East 545 627 41,000  Level Houston Center
09:28AM 30.6475 -89.4081 85° East 548 631 41,000  Level Houston Center
09:29AM 30.6550 -89.2292 87° East 553 636 41,000  Level Houston Center
09:30AM 30.6525 -89.0511 91° East 552 635 41,000  Level Houston Center
09:31AM 30.6522 -88.8536 90° East 554 638 41,000  Level Houston Center
09:32AM 30.6503 -88.6756 91° East 555 639 41,000  Level Houston Center
09:33AM 30.6500 -88.4975 90° East 558 642 41,000  Level Houston Center
09:34AM 30.6486 -88.3197 90° East 557 641 41,000  Level Houston Center
09:35AM 30.6469 -88.1425 91° East 557 641 41,000  Level Houston Center
09:36AM 30.6464 -87.9300 90° East 556 640 41,000  Level Houston Center
09:37AM 30.6425 -87.7528 91° East 555 639 41,000  Level Houston Center
09:38AM 30.6219 -87.6019 99° East 554 638 41,000  Level Jacksonville Center
09:39AM 30.5844 -87.4264 104° East 554 638 41,000  Level Jacksonville Center
09:40AM 30.5489 -87.2508 103° East 554 638 41,000  Level Jacksonville Center
09:41AM 30.5150 -87.0808 103° East 554 638 41,000  Level Jacksonville Center
09:42AM 30.4769 -86.9031 104° East 560 644 41,000  Level Jacksonville Center
09:43AM 30.4367 -86.7183 104° East 555 639 41,000 -60 Level Jacksonville Center
09:44AM 30.4019 -86.5461 103° East 555 639 40,900  Descending Jacksonville Center
09:45AM 30.3631 -86.3736 105° East 555 639 41,000  Climbing Jacksonville Center
09:46AM 30.3258 -86.2014 104° East 555 639 41,000  Level Jacksonville Center
09:47AM 30.2886 -86.0294 104° East 555 639 41,000  Level Jacksonville Center
09:49AM 30.2315 -85.8330 104° East  Level FlightAware Approximate
09:49AM 30.2125 -85.7047 104° East 555 639 41,000  Level Jacksonville Center
09:50AM 30.1764 -85.5381 104° East 555 639 41,000  Level Jacksonville Center
09:51AM 30.1364 -85.3422 103° East 557 641 41,000  Level Jacksonville Center
09:52AM 30.0978 -85.1758 105° East 552 635 41,000  Level Jacksonville Center
09:53AM 30.0611 -85.0069 104° East 545 627 41,000  Level Jacksonville Center
09:54AM 30.0242 -84.8381 104° East 540 621 41,000  Level Jacksonville Center
09:55AM 29.9847 -84.6694 105° East 540 621 41,000  Level Jacksonville Center
09:56AM 29.9431 -84.5033 106° East 540 621 41,000  Level Jacksonville Center
09:57AM 29.8572 -84.3631 125° Southeast 522 601 41,000  Level Jacksonville Center
09:58AM 29.7519 -84.2419 135° Southeast 527 606 41,000  Level Jacksonville Center
09:59AM 29.6614 -84.1356 134° Southeast 520 598 41,000  Level Jacksonville Center
10:00AM 29.5539 -84.0169 136° Southeast 526 605 41,000  Level Jacksonville Center
10:01AM 29.4506 -83.8967 135° Southeast 526 605 41,000  Level Jacksonville Center
10:02AM 29.3469 -83.7789 135° Southeast 526 605 41,000  Level Jacksonville Center
10:03AM 29.2411 -83.6611 136° Southeast 526 605 41,000  Level Jacksonville Center
10:04AM 29.1375 -83.5439 135° Southeast 526 605 41,000  Level Jacksonville Center
10:05AM 29.0336 -83.4244 135° Southeast 526 605 41,000  Level Jacksonville Center
10:06AM 28.9297 -83.3100 136° Southeast 526 605 41,000  Level Jacksonville Center
10:07AM 28.8258 -83.1936 136° Southeast 526 605 41,000  Level Jacksonville Center
10:08AM 28.7258 -83.0819 136° Southeast 521 600 41,000  Level Jacksonville Center
10:09AM 28.6258 -82.9658 134° Southeast 516 594 41,000  Level Jacksonville Center
10:10AM 28.5233 -82.8525 136° Southeast 511 588 41,000  Level Jacksonville Center
10:11AM 28.4233 -82.7414 136° Southeast 511 588 41,000 -120 Level Jacksonville Center
10:12AM 28.3208 -82.6261 135° Southeast 511 588 40,800 -720 Descending Jacksonville Center
10:13AM 28.2203 -82.5156 136° Southeast 511 588 39,600 -2,220 Descending Jacksonville Center
10:15AM 28.0419 -82.3303 137° Southeast 534 615 35,200 -1,860 Descending Miami Center
10:16AM 27.9108 -82.2675 157° South 514 592 34,900 -120 Descending Miami Center
10:17AM 27.7708 -82.2189 163° South 513 590 35,000  Climbing Miami Center
10:18AM 27.6431 -82.1728 162° South 529 609 35,000 -1,200 Level Miami Center
10:19AM 27.5031 -82.1242 163° South 535 616 32,700 -2,700 Descending Miami Center
10:20AM 27.3506 -82.0706 163° South 528 608 29,600 -2,880 Descending Miami Center
10:21AM 27.2144 -82.0269 164° South 523 602 27,000 -2,640 Descending Miami Center
10:22AM 27.0803 -81.9839 164° South 512 589 24,400 -2,160 Descending Miami Center
10:23AM 26.9503 -81.9386 163° South 501 577 22,700 -1,800 Descending Miami Center
10:24AM 26.8467 -81.8594 146° Southeast 461 531 20,900 -900 Descending Miami Center
10:25AM 26.7539 -81.7603 136° Southeast 461 531 21,000 -600 Climbing Miami Center
10:26AM 26.6997 -81.6347 116° Southeast 439 505 19,700 -1,020 Descending Miami Center
10:27AM 26.7206 -81.5078 80° East 415 478 19,000 -420 Descending Miami Center
10:28AM 26.7497 -81.3764 76° East 421 484 18,900 -1,320 Descending Miami Center
10:29AM 26.7786 -81.2519 75° East 426 490 16,400 -2,340 Descending Miami Center
10:30AM 26.8072 -81.1319 75° East 411 473 14,300 -2,100 Descending Miami Center
10:31AM 26.8275 -81.0072 80° East 392 451 12,200 -2,100 Descending Miami Center
10:32AM 26.8344 -80.9119 85° East 349 402 10,100 -1,140 Descending Miami Center
10:33AM 26.8247 -80.8139 96° East 325 374 10,000 -180 Descending Miami Center
10:34AM 26.7897 -80.7172 112° Southeast 305 351 9,800 -1,140 Descending Miami Center
10:35AM 26.8106 -80.6342 74° East 280 322 7,800 -1,680 Descending Miami Center
10:36AM 26.8664 -80.5708 45° Northeast 266 306 6,500 -1,440 Descending Miami Center
10:37AM 26.9158 -80.5189 43° Northeast 261 300 5,000 6,240 Descending Miami Center
10:38AM 26.9653 -80.4597 47° Northeast 241 277 19,000 -660 Climbing Miami Center
10:39AM 26.9981 -80.4072 55° Northeast 219 252 3,700 -8,280 Descending Miami Center
10:40AM 27.0328 -80.3522 55° Northeast 213 245 2,500 -1,200 Descending Miami Center
10:42AM 27.1667 -80.2167 North  Level FlightAware Approximate
10:49AM 27.1817 -80.2213 North  Level Estimated
10:50AM 27.1817 -80.2213 North  Level Estimated
10:51AM 27.1817 -80.2213 North  Level Estimated
10:52AM 27.1817 -80.2213 North  Level Estimated
10:53AM 27.1817 -80.2213 North  Level Estimated
10:54AM 27.1817 -80.2213 North  Level Estimated